createdAt,value
2018-05-14T00:00:47.885Z,99.99
2018-05-14T00:01:47.624Z,99.99
2018-05-14T00:02:47.633Z,99.99
2018-05-14T00:03:47.991Z,99.99
2018-05-14T00:04:47.618Z,99.99
2018-05-14T00:05:47.888Z,99.99
2018-05-14T00:06:47.641Z,99.99
2018-05-14T00:07:47.954Z,99.99
2018-05-14T00:08:47.880Z,99.99
2018-05-14T00:09:47.620Z,99.99
2018-05-14T00:10:47.621Z,99.99
2018-05-14T00:11:47.865Z,99.99
2018-05-14T00:12:47.882Z,99.99
2018-05-14T00:13:47.621Z,99.99
2018-05-14T00:14:47.872Z,99.99
2018-05-14T00:15:47.871Z,99.99
2018-05-14T00:16:47.872Z,99.99
2018-05-14T00:17:47.883Z,99.99
2018-05-14T00:18:47.611Z,99.99
2018-05-14T00:19:47.607Z,99.99
2018-05-14T00:20:47.600Z,99.99
2018-05-14T00:21:47.612Z,99.99
2018-05-14T00:22:47.621Z,99.99
2018-05-14T00:23:47.863Z,99.99
2018-05-14T00:24:47.862Z,99.99
2018-05-14T00:25:47.864Z,99.99
2018-05-14T00:26:47.599Z,99.99
2018-05-14T00:27:47.711Z,99.99
2018-05-14T00:28:47.873Z,99.99
2018-05-14T00:29:47.592Z,99.99
2018-05-14T00:30:47.866Z,99.99
2018-05-14T00:31:47.590Z,99.99
2018-05-14T00:32:47.873Z,99.99
2018-05-14T00:33:47.869Z,99.99
2018-05-14T00:34:47.844Z,99.99
2018-05-14T00:35:47.863Z,99.99
2018-05-14T00:36:47.844Z,99.99
2018-05-14T00:37:47.846Z,99.99
2018-05-14T00:38:47.839Z,99.99
2018-05-14T00:39:47.579Z,99.99
2018-05-14T00:40:47.584Z,99.99
2018-05-14T00:41:48.895Z,99.99
2018-05-14T00:42:47.838Z,99.99
2018-05-14T00:43:47.579Z,99.99
2018-05-14T00:44:47.576Z,99.99
2018-05-14T00:45:47.832Z,99.99
2018-05-14T00:46:47.833Z,99.99
2018-05-14T00:47:47.572Z,99.99
2018-05-14T00:48:47.829Z,99.99
2018-05-14T00:49:47.572Z,99.99
2018-05-14T00:50:47.577Z,99.99
2018-05-14T00:51:47.644Z,99.99
2018-05-14T00:52:47.569Z,99.99
2018-05-14T00:53:47.575Z,99.99
2018-05-14T00:54:47.567Z,99.99
2018-05-14T00:55:47.828Z,99.99
2018-05-14T00:56:47.560Z,99.99
2018-05-14T00:57:47.562Z,99.99
2018-05-14T00:58:47.567Z,99.99
2018-05-14T00:59:47.555Z,99.99
2018-05-14T01:00:47.565Z,99.99
2018-05-14T01:01:47.556Z,99.99
2018-05-14T01:02:47.562Z,99.99
2018-05-14T01:03:47.561Z,99.99
2018-05-14T01:04:47.816Z,99.99
2018-05-14T01:05:47.564Z,99.99
2018-05-14T01:06:47.836Z,99.99
2018-05-14T01:07:47.553Z,99.99
2018-05-14T01:08:47.558Z,99.99
2018-05-14T01:09:47.554Z,99.99
2018-05-14T01:10:47.571Z,99.99
2018-05-14T01:11:47.818Z,99.99
2018-05-14T01:12:47.548Z,99.99
2018-05-14T01:13:47.562Z,99.99
2018-05-14T01:14:47.562Z,99.99
2018-05-14T01:15:47.552Z,99.99
2018-05-14T01:16:47.833Z,99.99
2018-05-14T01:17:47.565Z,99.99
2018-05-14T01:18:47.561Z,99.99
2018-05-14T01:19:47.818Z,99.99
2018-05-14T01:20:47.552Z,99.99
2018-05-14T01:21:47.799Z,99.99
2018-05-14T01:22:47.805Z,99.99
2018-05-14T01:23:47.534Z,99.99
2018-05-14T01:24:47.800Z,99.99
2018-05-14T01:25:47.540Z,99.99
2018-05-14T01:26:47.796Z,99.99
2018-05-14T01:27:47.797Z,99.99
2018-05-14T01:28:47.534Z,99.99
2018-05-14T01:29:47.531Z,99.99
2018-05-14T01:30:47.802Z,99.99
2018-05-14T01:31:47.524Z,99.99
2018-05-14T01:32:47.530Z,99.99
2018-05-14T01:33:47.802Z,99.99
2018-05-14T01:34:47.538Z,99.99
2018-05-14T01:35:47.803Z,99.99
2018-05-14T01:36:47.792Z,99.99
2018-05-14T01:37:47.522Z,99.99
2018-05-14T01:38:47.519Z,99.99
2018-05-14T01:39:47.517Z,99.99
2018-05-14T01:40:47.520Z,99.99
2018-05-14T01:41:47.567Z,99.99
2018-05-14T01:42:47.785Z,99.99
2018-05-14T01:43:47.788Z,99.99
2018-05-14T01:44:47.507Z,99.99
2018-05-14T01:45:47.770Z,99.99
2018-05-14T01:46:47.509Z,99.99
2018-05-14T01:47:47.763Z,99.99
2018-05-14T01:48:47.504Z,99.99
2018-05-14T01:49:47.767Z,99.99
2018-05-14T01:50:47.518Z,99.99
2018-05-14T01:51:47.508Z,99.99
2018-05-14T01:52:47.779Z,99.99
2018-05-14T01:53:47.771Z,99.99
2018-05-14T01:54:47.514Z,99.99
2018-05-14T01:55:47.777Z,99.99
2018-05-14T01:56:47.529Z,99.99
2018-05-14T01:57:47.521Z,99.99
2018-05-14T01:58:47.773Z,99.99
2018-05-14T01:59:47.772Z,99.99
2018-05-14T02:00:47.783Z,99.99
2018-05-14T02:01:47.505Z,99.99
2018-05-14T02:02:47.510Z,99.99
2018-05-14T02:03:47.763Z,99.99
2018-05-14T02:04:47.502Z,99.99
2018-05-14T02:05:47.510Z,99.99
2018-05-14T02:06:47.517Z,99.99
2018-05-14T02:07:47.504Z,99.99
2018-05-14T02:08:47.501Z,99.99
2018-05-14T02:09:47.487Z,99.99
2018-05-14T02:10:47.752Z,99.99
2018-05-14T02:11:48.771Z,99.99
2018-05-14T02:12:47.768Z,99.99
2018-05-14T02:13:47.786Z,99.99
2018-05-14T02:14:47.483Z,99.99
2018-05-14T02:15:47.480Z,99.99
2018-05-14T02:16:47.503Z,99.99
2018-05-14T02:17:47.742Z,99.99
2018-05-14T02:18:47.479Z,99.99
2018-05-14T02:19:47.739Z,99.99
2018-05-14T02:20:47.751Z,99.99
2018-05-14T02:21:47.480Z,99.99
2018-05-14T02:22:47.477Z,99.99
2018-05-14T02:23:47.467Z,99.99
2018-05-14T02:24:47.469Z,99.99
2018-05-14T02:25:47.474Z,99.99
2018-05-14T02:26:47.465Z,99.99
2018-05-14T02:27:47.469Z,99.99
2018-05-14T02:28:47.472Z,99.99
2018-05-14T02:29:47.472Z,99.99
2018-05-14T02:30:47.733Z,99.99
2018-05-14T02:31:47.462Z,99.99
2018-05-14T02:32:47.462Z,99.99
2018-05-14T02:33:47.730Z,99.99
2018-05-14T02:34:47.461Z,99.99
2018-05-14T02:35:47.738Z,99.99
2018-05-14T02:36:47.464Z,99.99
2018-05-14T02:37:47.718Z,99.99
2018-05-14T02:38:47.461Z,99.99
2018-05-14T02:39:47.505Z,99.99
2018-05-14T02:40:47.744Z,99.99
2018-05-14T02:41:47.707Z,99.99
2018-05-14T02:42:47.732Z,99.99
2018-05-14T02:43:47.723Z,99.99
2018-05-14T02:44:47.463Z,99.99
2018-05-14T02:45:47.727Z,99.99
2018-05-14T02:46:47.725Z,99.99
2018-05-14T02:47:47.444Z,99.99
2018-05-14T02:48:47.442Z,99.99
2018-05-14T02:49:47.454Z,99.99
2018-05-14T02:50:47.833Z,99.99
2018-05-14T02:51:47.735Z,99.99
2018-05-14T02:52:47.436Z,99.99
2018-05-14T02:53:47.433Z,99.99
2018-05-14T02:54:47.435Z,99.99
2018-05-14T02:55:47.435Z,99.99
2018-05-14T02:56:47.703Z,99.99
2018-05-14T02:57:47.694Z,99.99
2018-05-14T02:58:47.702Z,99.99
2018-05-14T02:59:47.446Z,99.99
2018-05-14T03:00:47.431Z,99.99
2018-05-14T03:01:47.731Z,99.99
2018-05-14T03:02:47.446Z,99.99
2018-05-14T03:03:47.434Z,99.99
2018-05-14T03:04:47.794Z,99.99
2018-05-14T03:05:47.700Z,99.99
2018-05-14T03:06:47.447Z,99.99
2018-05-14T03:07:47.681Z,99.99
2018-05-14T03:08:47.683Z,99.99
2018-05-14T03:09:47.418Z,99.99
2018-05-14T03:10:47.423Z,99.99
2018-05-14T03:11:47.684Z,99.99
2018-05-14T03:12:47.417Z,99.99
2018-05-14T03:13:47.672Z,99.99
2018-05-14T03:14:47.677Z,99.99
2018-05-14T03:15:47.775Z,99.99
2018-05-14T03:16:47.415Z,99.99
2018-05-14T03:17:47.404Z,99.99
2018-05-14T03:18:47.712Z,99.99
2018-05-14T03:19:47.670Z,99.99
2018-05-14T03:20:47.699Z,99.99
2018-05-14T03:21:47.398Z,99.99
2018-05-14T03:22:47.658Z,99.99
2018-05-14T03:23:47.412Z,99.99
2018-05-14T03:24:47.394Z,99.99
2018-05-14T03:25:47.403Z,99.99
2018-05-14T03:26:47.390Z,99.99
2018-05-14T03:27:47.654Z,99.99
2018-05-14T03:28:47.655Z,99.99
2018-05-14T03:29:47.386Z,99.99
2018-05-14T03:30:47.393Z,99.99
2018-05-14T03:31:47.392Z,99.99
2018-05-14T03:32:47.653Z,99.99
2018-05-14T03:33:47.711Z,99.99
2018-05-14T03:34:47.389Z,99.99
2018-05-14T03:35:47.377Z,99.99
2018-05-14T03:36:47.648Z,99.99
2018-05-14T03:37:47.638Z,99.99
2018-05-14T03:38:47.641Z,99.99
2018-05-14T03:39:47.656Z,99.99
2018-05-14T03:40:47.372Z,99.99
2018-05-14T03:41:47.665Z,99.99
2018-05-14T03:42:47.707Z,99.99
2018-05-14T03:43:47.622Z,99.99
2018-05-14T03:44:47.632Z,99.99
2018-05-14T03:45:47.631Z,99.99
2018-05-14T03:46:47.619Z,99.99
2018-05-14T03:47:47.642Z,99.99
2018-05-14T03:48:47.623Z,99.99
2018-05-14T03:49:47.357Z,99.99
2018-05-14T03:50:47.364Z,99.99
2018-05-14T03:51:47.614Z,99.99
2018-05-14T03:52:47.616Z,99.99
2018-05-14T03:53:47.611Z,99.99
2018-05-14T03:54:47.365Z,99.99
2018-05-14T03:55:47.603Z,99.99
2018-05-14T03:56:47.349Z,99.99
2018-05-14T03:57:47.355Z,99.99
2018-05-14T03:58:47.605Z,99.99
2018-05-14T03:59:47.344Z,99.99
2018-05-14T04:00:47.375Z,99.99
2018-05-14T04:01:47.597Z,99.99
2018-05-14T04:02:47.339Z,99.99
2018-05-14T04:03:47.605Z,99.99
2018-05-14T04:04:47.339Z,99.99
2018-05-14T04:05:47.328Z,99.99
2018-05-14T04:06:47.327Z,99.99
2018-05-14T04:07:47.328Z,99.99
2018-05-14T04:08:47.321Z,99.99
2018-05-14T04:09:47.578Z,99.99
2018-05-14T04:10:47.593Z,99.99
2018-05-14T04:11:47.579Z,99.99
2018-05-14T04:12:48.644Z,99.99
2018-05-14T04:13:47.321Z,99.99
2018-05-14T04:14:47.592Z,99.99
2018-05-14T04:15:47.617Z,99.99
2018-05-14T04:16:47.574Z,99.99
2018-05-14T04:17:47.568Z,99.99
2018-05-14T04:18:47.575Z,99.99
2018-05-14T04:19:47.565Z,99.99
2018-05-14T04:20:47.304Z,99.99
2018-05-14T04:21:47.563Z,99.99
2018-05-14T04:22:47.307Z,99.99
2018-05-14T04:23:47.306Z,99.99
2018-05-14T04:24:47.562Z,99.99
2018-05-14T04:25:47.564Z,99.99
2018-05-14T04:26:47.562Z,99.99
2018-05-14T04:27:47.296Z,99.99
2018-05-14T04:28:47.296Z,99.99
2018-05-14T04:29:47.310Z,99.99
2018-05-14T04:30:47.568Z,99.99
2018-05-14T04:31:47.296Z,99.99
2018-05-14T04:32:47.569Z,99.99
2018-05-14T04:33:47.547Z,99.99
2018-05-14T04:34:47.297Z,99.99
2018-05-14T04:35:47.580Z,99.99
2018-05-14T04:36:47.559Z,99.99
2018-05-14T04:37:47.540Z,99.99
2018-05-14T04:38:47.280Z,99.99
2018-05-14T04:39:47.282Z,99.99
2018-05-14T04:40:47.552Z,99.99
2018-05-14T04:41:47.535Z,99.99
2018-05-14T04:42:47.556Z,99.99
2018-05-14T04:43:47.538Z,99.99
2018-05-14T04:44:47.537Z,99.99
2018-05-14T04:45:47.545Z,99.99
2018-05-14T04:46:47.533Z,99.99
2018-05-14T04:47:47.531Z,99.99
2018-05-14T04:48:47.523Z,99.99
2018-05-14T04:49:47.266Z,99.99
2018-05-14T04:50:47.523Z,99.99
2018-05-14T04:51:47.261Z,99.99
2018-05-14T04:52:47.259Z,99.99
2018-05-14T04:53:47.517Z,99.99
2018-05-14T04:54:47.519Z,99.99
2018-05-14T04:55:47.263Z,99.99
2018-05-14T04:56:47.262Z,99.99
2018-05-14T04:57:47.512Z,99.99
2018-05-14T04:58:47.509Z,99.99
2018-05-14T04:59:47.251Z,99.99
2018-05-14T05:00:47.541Z,99.99
2018-05-14T05:01:47.506Z,99.99
2018-05-14T05:02:47.508Z,99.99
2018-05-14T05:03:47.249Z,99.99
2018-05-14T05:04:47.502Z,99.99
2018-05-14T05:05:47.513Z,99.99
2018-05-14T05:06:47.251Z,99.99
2018-05-14T05:07:47.243Z,99.99
2018-05-14T05:08:47.252Z,99.99
2018-05-14T05:09:47.257Z,99.99
2018-05-14T05:10:47.505Z,99.99
2018-05-14T05:11:47.506Z,99.99
2018-05-14T05:12:47.506Z,99.99
2018-05-14T05:13:47.241Z,99.99
2018-05-14T05:14:47.235Z,99.99
2018-05-14T05:15:47.254Z,99.99
2018-05-14T05:16:47.496Z,99.99
2018-05-14T05:17:47.231Z,99.99
2018-05-14T05:18:47.229Z,99.99
2018-05-14T05:19:47.504Z,99.99
2018-05-14T05:20:47.499Z,99.99
2018-05-14T05:21:47.500Z,99.99
2018-05-14T05:22:47.580Z,99.99
2018-05-14T05:23:47.484Z,99.99
2018-05-14T05:24:47.224Z,99.99
2018-05-14T05:25:47.236Z,99.99
2018-05-14T05:26:47.228Z,99.99
2018-05-14T05:27:47.494Z,99.99
2018-05-14T05:28:47.483Z,99.99
2018-05-14T05:29:47.227Z,99.99
2018-05-14T05:30:47.481Z,99.99
2018-05-14T05:31:47.480Z,99.99
2018-05-14T05:32:47.481Z,99.99
2018-05-14T05:33:47.472Z,99.99
2018-05-14T05:34:47.214Z,99.99
2018-05-14T05:35:47.479Z,99.99
2018-05-14T05:36:47.479Z,99.99
2018-05-14T05:37:47.641Z,99.99
2018-05-14T05:38:47.468Z,99.99
2018-05-14T05:39:47.216Z,99.99
2018-05-14T05:40:47.221Z,99.99
2018-05-14T05:41:47.466Z,99.99
2018-05-14T05:42:47.470Z,99.99
2018-05-14T05:43:47.480Z,99.99
2018-05-14T05:44:47.472Z,99.99
2018-05-14T05:45:47.202Z,99.99
2018-05-14T05:46:47.220Z,99.99
2018-05-14T05:47:47.457Z,99.99
2018-05-14T05:48:47.197Z,99.99
2018-05-14T05:49:47.462Z,99.99
2018-05-14T05:50:47.457Z,99.99
2018-05-14T05:51:47.455Z,99.99
2018-05-14T05:52:47.193Z,99.99
2018-05-14T05:53:47.458Z,99.99
2018-05-14T05:54:47.185Z,99.99
2018-05-14T05:55:47.457Z,99.99
2018-05-14T05:56:47.202Z,99.99
2018-05-14T05:57:47.496Z,99.99
2018-05-14T05:58:47.183Z,99.99
2018-05-14T05:59:47.191Z,99.99
2018-05-14T06:00:47.443Z,99.99
2018-05-14T06:01:47.440Z,99.99
2018-05-14T06:02:47.432Z,99.99
2018-05-14T06:03:47.432Z,99.99
2018-05-14T06:04:47.433Z,99.99
2018-05-14T06:05:47.444Z,99.99
2018-05-14T06:06:47.433Z,99.99
2018-05-14T06:07:47.427Z,99.99
2018-05-14T06:08:47.429Z,99.99
2018-05-14T06:09:47.428Z,99.99
2018-05-14T06:10:47.421Z,99.99
2018-05-14T06:11:47.427Z,99.99
2018-05-14T06:12:47.434Z,99.99
2018-05-14T06:22:34.546Z,99.99
2018-05-14T06:23:34.795Z,99.99
2018-05-14T06:24:34.532Z,99.99
2018-05-14T06:25:34.799Z,99.99
2018-05-14T06:26:34.790Z,99.99
2018-05-14T06:27:34.528Z,99.99
2018-05-14T06:28:34.806Z,99.99
2018-05-14T06:29:34.522Z,99.99
2018-05-14T06:30:34.779Z,99.99
2018-05-14T06:31:34.524Z,99.99
2018-05-14T06:32:34.555Z,99.99
2018-05-14T06:33:34.519Z,99.99
2018-05-14T06:34:34.519Z,99.99
2018-05-14T06:35:34.897Z,99.99
2018-05-14T06:36:34.775Z,99.99
2018-05-14T06:37:34.766Z,99.99
2018-05-14T06:38:34.513Z,99.99
2018-05-14T06:39:34.499Z,99.99
2018-05-14T06:40:34.763Z,99.99
2018-05-14T06:41:34.494Z,99.99
2018-05-14T06:42:34.745Z,99.99
2018-05-14T06:43:34.482Z,99.99
2018-05-14T06:44:34.764Z,99.99
2018-05-14T06:45:34.503Z,99.99
2018-05-14T06:46:34.504Z,99.99
2018-05-14T06:47:34.745Z,99.99
2018-05-14T06:48:34.751Z,99.99
2018-05-14T06:49:34.745Z,99.99
2018-05-14T06:50:34.488Z,99.99
2018-05-14T06:51:34.482Z,99.99
2018-05-14T06:52:34.485Z,99.99
2018-05-14T06:53:34.748Z,99.99
2018-05-14T06:54:34.479Z,99.99
2018-05-14T06:55:34.747Z,99.99
2018-05-14T06:56:34.738Z,99.99
2018-05-14T06:57:34.741Z,99.99
2018-05-14T06:58:34.735Z,99.99
2018-05-14T06:59:34.737Z,99.99
2018-05-14T07:00:34.734Z,99.99
2018-05-14T07:01:34.740Z,99.99
2018-05-14T07:02:34.730Z,99.99
2018-05-14T07:03:34.470Z,99.99
2018-05-14T07:04:34.479Z,99.99
2018-05-14T07:05:34.734Z,99.99
2018-05-14T07:06:34.733Z,99.99
2018-05-14T07:07:34.748Z,99.99
2018-05-14T07:08:34.481Z,99.99
2018-05-14T07:09:34.740Z,99.99
2018-05-14T07:10:34.725Z,99.99
2018-05-14T07:11:34.535Z,99.99
2018-05-14T07:12:34.747Z,99.99
2018-05-14T07:13:34.467Z,99.99
2018-05-14T07:14:34.724Z,99.99
2018-05-14T07:15:34.728Z,99.99
2018-05-14T07:16:34.723Z,99.99
2018-05-14T07:17:34.470Z,99.99
2018-05-14T07:18:34.719Z,99.99
2018-05-14T07:19:34.735Z,99.99
2018-05-14T07:20:34.721Z,99.99
2018-05-14T07:21:34.462Z,99.99
2018-05-14T07:22:34.735Z,99.99
2018-05-14T07:23:34.715Z,99.99
2018-05-14T07:24:34.721Z,99.99
2018-05-14T07:25:34.463Z,99.99
2018-05-14T07:26:34.498Z,99.99
2018-05-14T07:27:34.719Z,99.99
2018-05-14T07:28:34.718Z,99.99
2018-05-14T07:29:34.455Z,99.99
2018-05-14T07:30:34.723Z,99.99
2018-05-14T07:31:34.719Z,99.99
2018-05-14T07:32:34.736Z,99.99
2018-05-14T07:33:34.735Z,99.99
2018-05-14T07:34:34.464Z,99.99
2018-05-14T07:35:34.735Z,99.99
2018-05-14T07:36:34.451Z,99.99
2018-05-14T07:37:34.451Z,99.99
2018-05-14T07:38:34.717Z,99.99
2018-05-14T07:39:34.710Z,99.99
2018-05-14T07:40:34.856Z,99.99
2018-05-14T07:41:34.708Z,99.99
2018-05-14T07:42:34.453Z,99.99
2018-05-14T07:43:34.733Z,99.99
2018-05-14T07:44:34.705Z,99.99
2018-05-14T07:45:34.462Z,99.99
2018-05-14T07:46:34.707Z,99.99
2018-05-14T07:47:36.563Z,99.99
2018-05-14T07:48:34.708Z,99.99
2018-05-14T07:49:34.705Z,99.99
2018-05-14T07:50:34.699Z,99.99
2018-05-14T07:51:34.445Z,99.99
2018-05-14T07:52:34.443Z,99.99
2018-05-14T07:53:34.703Z,99.99
2018-05-14T07:54:34.831Z,99.99
2018-05-14T07:55:34.702Z,99.99
2018-05-14T07:56:34.450Z,99.99
2018-05-14T07:57:34.711Z,99.99
2018-05-14T07:58:34.449Z,99.99
2018-05-14T07:59:34.704Z,99.99
2018-05-14T08:00:34.452Z,99.99
2018-05-14T08:01:34.695Z,99.99
2018-05-14T08:02:34.700Z,99.99
2018-05-14T08:03:34.435Z,99.99
2018-05-14T08:04:34.699Z,99.99
2018-05-14T08:05:34.798Z,99.99
2018-05-14T08:06:34.696Z,99.99
2018-05-14T08:07:34.700Z,99.99
2018-05-14T08:08:34.452Z,99.99
2018-05-14T08:09:34.446Z,99.99
2018-05-14T08:10:34.431Z,99.99
2018-05-14T08:11:34.425Z,99.99
2018-05-14T08:12:34.688Z,99.99
2018-05-14T08:13:34.691Z,99.99
2018-05-14T08:14:34.682Z,99.99
2018-05-14T08:15:34.702Z,99.99
2018-05-14T08:16:34.687Z,99.99
2018-05-14T08:17:34.734Z,99.99
2018-05-14T08:18:34.688Z,99.99
2018-05-14T08:19:34.687Z,99.99
2018-05-14T08:20:34.682Z,99.99
2018-05-14T08:21:34.684Z,99.99
2018-05-14T08:22:34.422Z,99.99
2018-05-14T08:23:34.903Z,99.99
2018-05-14T08:24:34.697Z,99.99
2018-05-14T08:25:34.685Z,99.99
2018-05-14T08:26:34.685Z,99.99
2018-05-14T08:27:34.422Z,99.99
2018-05-14T08:28:34.680Z,99.99
2018-05-14T08:29:34.428Z,99.99
2018-05-14T08:30:34.419Z,99.99
2018-05-14T08:31:34.674Z,99.99
2018-05-14T08:32:35.479Z,99.99
2018-05-14T08:33:34.682Z,99.99
2018-05-14T08:34:34.425Z,99.99
2018-05-14T08:35:34.417Z,99.99
2018-05-14T08:36:34.412Z,99.99
2018-05-14T08:37:34.416Z,99.99
2018-05-14T08:38:34.416Z,99.99
2018-05-14T08:39:34.673Z,99.99
2018-05-14T08:40:34.405Z,99.99
2018-05-14T08:41:34.404Z,99.99
2018-05-14T08:42:34.420Z,99.99
2018-05-14T08:43:34.657Z,99.99
2018-05-14T08:44:34.655Z,99.99
2018-05-14T08:45:34.665Z,99.99
2018-05-14T08:46:34.404Z,99.99
2018-05-14T08:47:34.668Z,99.99
2018-05-14T08:48:34.681Z,99.99
2018-05-14T08:49:34.675Z,99.99
2018-05-14T08:50:34.667Z,99.99
2018-05-14T08:51:34.416Z,99.99
2018-05-14T08:52:34.406Z,99.99
2018-05-14T08:53:34.673Z,99.99
2018-05-14T08:54:34.884Z,99.99
2018-05-14T08:55:34.412Z,99.99
2018-05-14T08:56:34.409Z,99.99
2018-05-14T08:57:34.496Z,99.99
2018-05-14T08:58:34.418Z,99.99
2018-05-14T08:59:34.668Z,99.99
2018-05-14T09:00:34.406Z,99.99
2018-05-14T09:01:34.671Z,99.99
2018-05-14T09:02:34.671Z,99.99
2018-05-14T09:03:34.678Z,99.99
2018-05-14T09:04:34.665Z,99.99
2018-05-14T09:05:34.404Z,99.99
2018-05-14T09:06:34.411Z,99.99
2018-05-14T09:07:34.438Z,99.99
2018-05-14T09:08:34.410Z,99.99
2018-05-14T09:09:34.877Z,99.99
2018-05-14T09:10:34.663Z,99.99
2018-05-14T09:11:34.409Z,99.99
2018-05-14T09:12:34.668Z,99.99
2018-05-14T09:13:34.661Z,99.99
2018-05-14T09:14:34.413Z,99.99
2018-05-14T09:15:34.412Z,99.99
2018-05-14T09:16:34.408Z,99.99
2018-05-14T09:17:34.405Z,99.99
2018-05-14T09:18:34.672Z,99.99
2018-05-14T09:19:34.462Z,99.99
2018-05-14T09:20:34.408Z,99.99
2018-05-14T09:21:34.670Z,99.99
2018-05-14T09:22:34.662Z,99.99
2018-05-14T09:23:34.696Z,99.99
2018-05-14T09:24:34.400Z,99.99
2018-05-14T09:25:34.922Z,99.99
2018-05-14T09:26:34.665Z,99.99
2018-05-14T09:27:34.662Z,99.99
2018-05-14T09:28:34.665Z,99.99
2018-05-14T09:29:34.663Z,99.99
2018-05-14T09:30:34.395Z,99.99
2018-05-14T09:31:34.664Z,99.99
2018-05-14T09:32:34.648Z,99.99
2018-05-14T09:33:34.660Z,99.99
2018-05-14T09:34:34.656Z,99.99
2018-05-14T09:35:34.666Z,99.99
2018-05-14T09:36:34.432Z,99.99
2018-05-14T09:37:34.648Z,99.99
2018-05-14T09:38:34.653Z,99.99
2018-05-14T09:39:34.657Z,99.99
2018-05-14T09:40:34.649Z,99.99
2018-05-14T09:41:34.652Z,99.99
2018-05-14T09:42:34.648Z,99.99
2018-05-14T09:43:34.387Z,99.99
2018-05-14T09:44:34.696Z,99.99
2018-05-14T09:45:34.653Z,99.99
2018-05-14T09:46:34.648Z,99.99
2018-05-14T09:47:34.387Z,99.99
2018-05-14T09:48:35.444Z,99.99
2018-05-14T09:49:34.661Z,99.99
2018-05-14T09:50:34.773Z,99.99
2018-05-14T09:51:34.653Z,99.99
2018-05-14T09:52:34.391Z,99.99
2018-05-14T09:53:34.647Z,99.99
2018-05-14T09:54:34.646Z,99.99
2018-05-14T09:55:34.445Z,99.99
2018-05-14T09:56:34.648Z,99.99
2018-05-14T09:57:34.647Z,99.99
2018-05-14T09:58:34.653Z,99.99
2018-05-14T09:59:34.648Z,99.99
2018-05-14T10:00:34.645Z,99.99
2018-05-14T10:01:34.642Z,99.99
2018-05-14T10:02:34.644Z,99.99
2018-05-14T10:03:34.852Z,99.99
2018-05-14T10:04:34.646Z,99.99
2018-05-14T10:05:34.655Z,99.99
2018-05-14T10:06:34.382Z,99.99
2018-05-14T10:07:34.650Z,99.99
2018-05-14T10:08:34.655Z,99.99
2018-05-14T10:09:34.382Z,99.99
2018-05-14T10:10:34.403Z,99.99
2018-05-14T10:11:34.644Z,99.99
2018-05-14T10:12:34.395Z,99.99
2018-05-14T10:13:35.440Z,99.99
2018-05-14T10:14:34.645Z,99.99
2018-05-14T10:15:34.643Z,99.99
2018-05-14T10:16:34.642Z,99.99
2018-05-14T10:17:34.381Z,99.99
2018-05-14T10:18:34.384Z,99.99
2018-05-14T10:19:34.638Z,99.99
2018-05-14T10:20:34.643Z,99.99
2018-05-14T10:21:34.646Z,99.99
2018-05-14T10:22:34.639Z,99.99
2018-05-14T10:53:02.045Z,99.99
2018-05-14T10:54:02.299Z,99.99
2018-05-14T10:55:02.296Z,99.99
2018-05-14T10:56:02.095Z,99.99
2018-05-14T10:57:02.276Z,99.99
2018-05-14T10:58:02.289Z,99.99
2018-05-14T10:59:02.290Z,99.99
2018-05-14T11:00:02.333Z,99.99
2018-05-14T11:01:02.291Z,99.99
2018-05-14T11:02:02.287Z,99.99
2018-05-14T11:03:02.263Z,99.99
2018-05-14T11:04:02.379Z,99.99
2018-05-14T11:05:02.282Z,99.99
2018-05-14T11:06:02.283Z,99.99
2018-05-14T11:07:02.279Z,99.99
2018-05-14T11:08:02.289Z,99.99
2018-05-14T11:09:02.279Z,99.99
2018-05-14T11:10:02.005Z,99.99
2018-05-14T11:11:02.274Z,99.99
2018-05-14T11:12:02.257Z,99.99
2018-05-14T11:13:02.285Z,99.99
2018-05-14T11:14:01.989Z,99.99
2018-05-14T11:15:02.012Z,99.99
2018-05-14T11:16:02.265Z,99.99
2018-05-14T11:17:02.010Z,99.99
2018-05-14T11:18:02.279Z,99.99
2018-05-14T11:19:02.254Z,99.99
2018-05-14T11:20:01.989Z,99.99
2018-05-14T11:21:01.993Z,99.99
2018-05-14T11:22:02.264Z,99.99
2018-05-14T11:23:02.265Z,99.99
2018-05-14T11:24:02.275Z,99.99
2018-05-14T11:25:01.992Z,99.99
2018-05-14T11:26:02.257Z,99.99
2018-05-14T11:27:02.272Z,99.99
2018-05-14T11:28:02.299Z,99.99
2018-05-14T11:29:02.263Z,99.99
2018-05-14T11:30:02.273Z,99.99
2018-05-14T11:31:02.260Z,99.99
2018-05-14T11:32:02.258Z,99.99
2018-05-14T11:33:01.992Z,99.99
2018-05-14T11:34:01.997Z,99.99
2018-05-14T11:35:01.996Z,99.99
2018-05-14T11:36:02.259Z,99.99
2018-05-14T11:37:02.256Z,99.99
2018-05-14T11:38:02.307Z,99.99
2018-05-14T11:39:02.265Z,99.99
2018-05-14T11:40:02.263Z,99.99
2018-05-14T11:41:01.991Z,99.99
2018-05-14T11:42:02.263Z,99.99
2018-05-14T11:43:02.267Z,99.99
2018-05-14T11:44:02.252Z,99.99
2018-05-14T11:45:01.994Z,99.99
2018-05-14T11:46:01.992Z,99.99
2018-05-14T11:47:02.310Z,99.99
2018-05-14T11:48:02.263Z,99.99
2018-05-14T11:49:02.282Z,99.99
2018-05-14T11:50:02.000Z,99.99
2018-05-14T11:51:02.265Z,99.99
2018-05-14T11:52:02.270Z,99.99
2018-05-14T11:53:02.004Z,99.99
2018-05-14T11:54:02.000Z,99.99
2018-05-14T11:55:02.262Z,99.99
2018-05-14T11:56:02.280Z,99.99
2018-05-14T11:57:02.342Z,99.99
2018-05-14T11:58:02.275Z,99.99
2018-05-14T11:59:02.277Z,99.99
2018-05-14T12:00:02.272Z,99.99
2018-05-14T12:01:02.281Z,99.99
2018-05-14T12:02:02.013Z,99.99
2018-05-14T12:03:02.158Z,99.99
2018-05-14T12:04:02.059Z,99.99
2018-05-14T12:05:02.295Z,99.99
2018-05-14T12:06:02.051Z,99.99
2018-05-14T12:07:02.047Z,99.99
2018-05-14T12:08:02.077Z,99.99
2018-05-14T12:09:02.014Z,99.99
2018-05-14T12:10:02.464Z,99.99
2018-05-14T12:11:02.277Z,99.99
2018-05-14T12:12:02.018Z,99.99
2018-05-14T12:13:02.019Z,99.99
2018-05-14T12:14:02.284Z,99.99
2018-05-14T12:15:02.021Z,99.99
2018-05-14T12:16:02.374Z,99.99
2018-05-14T12:17:02.280Z,99.99
2018-05-14T12:18:02.364Z,99.99
2018-05-14T12:19:02.291Z,99.99
2018-05-14T12:20:02.036Z,99.99
2018-05-14T12:21:02.292Z,99.99
2018-05-14T12:22:02.298Z,99.99
2018-05-14T12:23:02.311Z,99.99
2018-05-14T12:24:02.313Z,99.99
2018-05-14T12:25:02.288Z,99.99
2018-05-14T12:26:02.297Z,99.99
2018-05-14T12:27:02.046Z,99.99
2018-05-14T12:28:02.060Z,99.99
2018-05-14T12:29:02.308Z,99.99
2018-05-14T12:30:02.313Z,99.99
2018-05-14T12:31:02.083Z,99.99
2018-05-14T12:32:02.330Z,99.99
2018-05-14T12:33:02.300Z,99.99
2018-05-14T12:34:02.328Z,99.99
2018-05-14T12:35:02.324Z,99.99
2018-05-14T12:36:02.315Z,99.99
2018-05-14T12:37:02.315Z,99.99
2018-05-14T12:38:02.351Z,99.99
2018-05-14T12:39:02.318Z,99.99
2018-05-14T12:40:02.048Z,99.99
2018-05-14T12:41:02.051Z,99.99
2018-05-14T12:42:02.083Z,99.99
2018-05-14T12:43:02.313Z,99.99
2018-05-14T12:44:02.312Z,99.99
2018-05-14T12:45:02.320Z,99.99
2018-05-14T12:46:02.094Z,99.99
2018-05-14T12:47:02.067Z,99.99
2018-05-14T12:48:03.129Z,99.99
2018-05-14T12:49:02.315Z,99.99
2018-05-14T12:50:02.068Z,99.99
2018-05-14T12:51:02.321Z,99.99
2018-05-14T12:52:02.087Z,99.99
2018-05-14T12:53:02.313Z,99.99
2018-05-14T12:54:02.324Z,99.99
2018-05-14T12:55:02.340Z,99.99
2018-05-14T12:56:02.322Z,99.99
2018-05-14T12:57:02.316Z,98
2018-05-14T12:58:02.075Z,97.81
2018-05-14T12:59:02.075Z,96.22
2018-05-14T13:00:02.331Z,94.98
2018-05-14T13:01:02.330Z,93.34
2018-05-14T13:02:02.335Z,94.4
2018-05-14T13:03:02.345Z,94.31
2018-05-14T13:04:02.355Z,95.26
2018-05-14T13:05:02.348Z,94.78
2018-05-14T13:06:02.095Z,94.11
2018-05-14T13:07:02.194Z,93.73
2018-05-14T13:08:02.083Z,93.15
2018-05-14T13:09:02.102Z,93.15
2018-05-14T13:10:02.344Z,94.11
2018-05-14T13:11:02.349Z,95.79
2018-05-14T13:12:02.109Z,96.56
2018-05-14T13:13:02.430Z,97.61
2018-05-14T13:14:02.358Z,97.52
2018-05-14T13:15:02.354Z,96.85
2018-05-14T13:16:02.097Z,97.33
2018-05-14T13:17:02.371Z,97.33
2018-05-14T13:18:02.363Z,97.95
2018-05-14T13:19:02.104Z,98.53
2018-05-14T13:20:02.363Z,98.91
2018-05-14T13:21:02.376Z,99.87
2018-05-14T13:22:02.361Z,99.99
2018-05-14T13:23:02.112Z,99.99
2018-05-14T13:24:02.381Z,99.99
2018-05-14T13:25:02.376Z,99.99
2018-05-14T13:26:02.370Z,99.96
2018-05-14T13:27:02.112Z,99.99
2018-05-14T13:28:02.375Z,99.99
2018-05-14T13:29:02.117Z,99.99
2018-05-14T13:30:02.385Z,99.99
2018-05-14T13:31:02.379Z,99.99